createdAt,value
2018-01-08T00:00:55.413Z,105.00
2018-01-08T00:03:23.089Z,107.47
2018-01-08T00:05:50.668Z,95.83
2018-01-08T00:08:18.234Z,85.20
2018-01-08T00:10:45.858Z,78.87
2018-01-08T00:13:13.487Z,81.33
2018-01-08T00:15:41.115Z,79.87
2018-01-08T00:18:08.737Z,84.50
2018-01-08T00:20:36.391Z,92.33
2018-01-08T00:23:03.945Z,98.30
2018-01-08T00:25:31.673Z,100.30
2018-01-08T00:27:59.247Z,92.40
2018-01-08T00:30:26.872Z,94.10
2018-01-08T00:32:54.526Z,102.43
2018-01-08T00:35:22.159Z,110.97
2018-01-08T00:37:49.807Z,115.47
2018-01-08T00:40:17.462Z,102.50
2018-01-08T00:42:45.026Z,95.77
2018-01-08T00:45:12.616Z,95.30
2018-01-08T00:47:40.299Z,94.73
2018-01-08T00:50:07.875Z,97.50
2018-01-08T00:52:35.509Z,94.30
2018-01-08T00:55:03.151Z,98.77
2018-01-08T00:57:30.726Z,99.37
2018-01-08T00:59:58.354Z,105.20
2018-01-08T01:02:25.999Z,95.60
2018-01-08T01:04:53.626Z,93.60
2018-01-08T01:07:21.198Z,87.77
2018-01-08T01:09:48.833Z,75.80
2018-01-08T01:12:16.387Z,75.80
2018-01-08T01:14:43.954Z,76.07
2018-01-08T01:17:11.586Z,76.97
2018-01-08T01:19:39.211Z,74.37
2018-01-08T01:22:06.828Z,71.33
2018-01-08T01:24:34.521Z,66.83
2018-01-08T01:27:02.095Z,55.23
2018-01-08T01:29:29.666Z,59.47
2018-01-08T01:31:57.282Z,57.40
2018-01-08T01:34:24.825Z,49.13
2018-01-08T01:36:52.393Z,60.63
2018-01-08T01:39:20.032Z,51.30
2018-01-08T01:41:47.613Z,66.60
2018-01-08T01:44:15.191Z,66.13
2018-01-08T01:46:42.814Z,72.67
2018-01-08T01:49:21.496Z,57.77
2018-01-08T01:51:49.126Z,40.47
2018-01-08T01:54:16.755Z,42.10
2018-01-08T01:56:44.329Z,31.80
2018-01-08T01:59:12.006Z,33.27
2018-01-08T02:01:39.622Z,35.80
2018-01-08T02:04:07.253Z,42.73
2018-01-08T02:06:34.870Z,42.27
2018-01-08T02:09:02.449Z,45.57
2018-01-08T02:11:30.019Z,40.57
2018-01-08T02:13:57.638Z,36.20
2018-01-08T02:16:25.202Z,39.10
2018-01-08T02:18:52.771Z,35.37
2018-01-08T02:21:20.468Z,40.40
2018-01-08T02:23:48.038Z,32.50
2018-01-08T02:26:15.677Z,27.80
2018-01-08T02:28:43.302Z,28.57
2018-01-08T02:31:10.866Z,28.40
2018-01-08T02:33:38.502Z,28.73
2018-01-08T02:36:06.182Z,28.77
2018-01-08T02:38:33.804Z,27.90
2018-01-08T02:41:01.373Z,25.03
2018-01-08T02:43:29.022Z,26.00
2018-01-08T02:45:56.587Z,26.90
2018-01-08T02:48:24.226Z,25.10
2018-01-08T02:50:51.980Z,20.37
2018-01-08T02:53:19.607Z,23.40
2018-01-08T02:55:47.174Z,20.03
2018-01-08T02:58:14.822Z,20.73
2018-01-08T03:00:42.512Z,18.10
2018-01-08T03:03:10.081Z,20.03
2018-01-08T03:05:37.702Z,22.47
2018-01-08T03:08:05.267Z,22.73
2018-01-08T03:10:32.834Z,20.73
2018-01-08T03:13:00.462Z,18.70
2018-01-08T03:15:28.025Z,22.30
2018-01-08T03:17:55.593Z,22.53
2018-01-08T03:20:23.275Z,21.73
2018-01-08T03:22:50.909Z,22.80
2018-01-08T03:25:18.509Z,21.70
2018-01-08T03:27:46.204Z,18.43
2018-01-08T03:30:13.829Z,15.90
2018-01-08T03:32:41.398Z,21.00
2018-01-08T03:35:09.018Z,26.20
2018-01-08T03:37:36.582Z,30.10
2018-01-08T03:40:04.158Z,29.17
2018-01-08T03:42:31.770Z,30.33
2018-01-08T03:44:59.331Z,32.47
2018-01-08T03:47:26.896Z,28.37
2018-01-08T03:49:54.576Z,27.50
2018-01-08T03:52:22.202Z,24.53
2018-01-08T03:54:49.826Z,38.60
2018-01-08T03:57:17.473Z,53.73
2018-01-08T03:59:45.043Z,52.70
2018-01-08T04:02:12.713Z,32.03
2018-01-08T04:04:40.343Z,28.73
2018-01-08T04:07:07.913Z,28.07
2018-01-08T04:09:35.538Z,32.47
2018-01-08T04:12:03.211Z,36.40
2018-01-08T04:14:30.834Z,32.47
2018-01-08T04:16:58.399Z,34.40
2018-01-08T04:19:26.018Z,26.53
2018-01-08T04:21:53.578Z,29.67
2018-01-08T04:24:21.152Z,29.07
2018-01-08T04:26:48.772Z,32.57
2018-01-08T04:29:16.339Z,31.00
2018-01-08T04:31:43.892Z,34.00
2018-01-08T04:34:11.564Z,31.67
2018-01-08T04:36:39.134Z,32.90
2018-01-08T04:39:06.708Z,32.57
2018-01-08T04:41:34.328Z,39.50
2018-01-08T04:44:01.965Z,38.57
2018-01-08T04:46:29.597Z,40.80
2018-01-08T04:48:57.279Z,36.90
2018-01-08T04:51:24.904Z,36.53
2018-01-08T04:53:52.462Z,39.40
2018-01-08T04:56:20.094Z,42.27
2018-01-08T04:58:47.675Z,39.40
2018-01-08T05:01:15.238Z,45.47
2018-01-08T05:03:42.859Z,48.83
2018-01-08T05:06:10.437Z,50.40
2018-01-08T05:08:38.003Z,49.90
2018-01-08T05:11:05.683Z,48.67
2018-01-08T05:13:33.290Z,48.43
2018-01-08T05:16:00.928Z,48.63
2018-01-08T05:18:28.611Z,50.23
2018-01-08T05:20:56.239Z,49.63
2018-01-08T05:23:23.821Z,54.20
2018-01-08T05:25:51.521Z,53.20
2018-01-08T05:28:19.087Z,53.53
2018-01-08T05:30:46.659Z,56.20
2018-01-08T05:33:14.352Z,59.50
2018-01-08T05:35:41.926Z,60.93
2018-01-08T05:38:09.493Z,59.17
2018-01-08T05:40:37.199Z,63.43
2018-01-08T05:43:04.771Z,56.67
2018-01-08T05:45:32.342Z,51.10
2018-01-08T05:47:59.966Z,56.27
2018-01-08T05:50:27.525Z,53.00
2018-01-08T05:52:55.085Z,63.00
2018-01-08T05:55:22.735Z,77.30
2018-01-08T05:57:50.359Z,71.60
2018-01-08T06:00:17.926Z,67.63
2018-01-08T06:02:45.608Z,68.20
2018-01-08T06:05:13.174Z,58.07
2018-01-08T06:07:40.738Z,41.10
2018-01-08T06:10:08.357Z,42.07
2018-01-08T06:12:35.982Z,41.20
2018-01-08T06:15:03.651Z,51.33
2018-01-08T06:17:31.274Z,52.77
2018-01-08T06:19:58.834Z,46.43
2018-01-08T06:22:26.458Z,46.00
2018-01-08T06:24:54.097Z,44.97
2018-01-08T06:27:21.643Z,43.03
2018-01-08T06:29:49.271Z,38.77
2018-01-08T06:32:16.924Z,34.37
2018-01-08T06:34:44.482Z,38.07
2018-01-08T06:37:12.112Z,42.00
2018-01-08T06:39:39.875Z,55.13
2018-01-08T06:42:07.438Z,55.27
2018-01-08T06:44:35.063Z,96.73
2018-01-08T06:47:02.711Z,56.40
2018-01-08T06:49:30.335Z,48.07
2018-01-08T06:51:57.897Z,43.10
2018-01-08T06:54:25.529Z,37.00
2018-01-08T06:56:53.090Z,39.70
2018-01-08T06:59:20.705Z,34.53
2018-01-08T07:01:48.275Z,34.27
2018-01-08T07:04:15.835Z,37.20
2018-01-08T07:06:43.428Z,35.07
2018-01-08T07:09:11.036Z,35.30
2018-01-08T07:11:38.658Z,35.20
2018-01-08T07:14:06.283Z,37.30
2018-01-08T07:16:33.851Z,39.07
2018-01-08T07:19:01.490Z,57.80
2018-01-08T07:21:29.084Z,39.10
2018-01-08T07:23:56.733Z,41.20
2018-01-08T07:26:24.354Z,39.73
2018-01-08T07:28:51.926Z,64.17
2018-01-08T07:31:19.561Z,44.57
2018-01-08T07:33:47.188Z,43.77
2018-01-08T07:36:14.803Z,50.57
2018-01-08T07:38:42.382Z,72.30
2018-01-08T07:41:10.006Z,92.23
2018-01-08T07:43:37.581Z,73.37
2018-01-08T07:46:05.147Z,62.93
2018-01-08T07:48:32.828Z,48.07
2018-01-08T07:51:00.394Z,65.70
2018-01-08T07:53:28.021Z,31.63
2018-01-08T07:55:55.660Z,26.17
2018-01-08T07:58:23.226Z,23.70
2018-01-08T08:00:50.854Z,36.57
2018-01-08T08:03:18.426Z,22.07
2018-01-08T08:05:45.995Z,23.13
2018-01-08T08:08:13.647Z,21.50
2018-01-08T08:10:41.278Z,17.73
2018-01-08T08:13:08.965Z,15.07
2018-01-08T08:15:36.551Z,11.20
2018-01-08T08:18:04.124Z,12.53
2018-01-08T08:20:31.706Z,9.07
2018-01-08T08:22:59.275Z,9.20
2018-01-08T08:25:26.886Z,9.23
2018-01-08T08:27:54.436Z,11.20
2018-01-08T08:30:21.997Z,11.67
2018-01-08T08:32:49.573Z,11.80
2018-01-08T08:35:17.180Z,14.77
2018-01-08T08:37:44.888Z,12.53
2018-01-08T08:40:12.537Z,11.40
2018-01-08T08:42:40.107Z,13.90
2018-01-08T08:45:08.606Z,13.30
2018-01-08T08:47:36.184Z,17.53
2018-01-08T08:50:03.844Z,14.90
2018-01-08T08:52:31.427Z,20.80
2018-01-08T08:54:59.034Z,23.97
2018-01-08T08:57:26.675Z,47.90
2018-01-08T08:59:54.246Z,59.40
2018-01-08T09:02:21.954Z,65.67
2018-01-08T09:04:49.591Z,55.13
2018-01-08T09:07:17.235Z,55.83
2018-01-08T09:09:44.878Z,47.13
2018-01-08T09:12:12.502Z,47.10
2018-01-08T09:14:40.225Z,48.20
2018-01-08T09:17:07.775Z,42.80
2018-01-08T09:19:35.333Z,42.90
2018-01-08T09:22:02.968Z,34.40
2018-01-08T09:24:30.534Z,46.27
2018-01-08T09:26:58.220Z,46.13
2018-01-08T09:29:25.855Z,45.53
2018-01-08T09:31:53.474Z,48.87
2018-01-08T09:34:21.116Z,53.00
2018-01-08T09:36:48.750Z,56.73
2018-01-08T09:39:16.375Z,56.13
2018-01-08T09:41:43.950Z,53.47
2018-01-08T09:44:11.522Z,51.83
2018-01-08T09:46:39.103Z,53.90
2018-01-08T09:49:06.734Z,56.47
2018-01-08T09:51:34.358Z,58.60
2018-01-08T09:54:01.982Z,47.57
2018-01-08T09:56:29.614Z,37.00
2018-01-08T09:58:57.195Z,32.13
2018-01-08T10:01:24.791Z,27.27
2018-01-08T10:04:04.056Z,25.57
2018-01-08T10:06:43.520Z,25.53
2018-01-08T10:09:22.754Z,24.80
2018-01-08T10:12:02.144Z,23.80
2018-01-08T10:14:41.727Z,25.30
2018-01-08T10:17:20.912Z,22.70
2018-01-08T10:20:03.415Z,26.50
2018-01-08T10:22:30.968Z,22.80
2018-01-08T10:24:58.590Z,25.20
2018-01-08T10:27:26.173Z,28.07
2018-01-08T10:29:53.805Z,32.83
2018-01-08T10:32:21.448Z,24.07
2018-01-08T10:34:49.022Z,25.90
2018-01-08T10:37:16.673Z,31.20
2018-01-08T10:39:44.303Z,29.17
2018-01-08T10:42:17.534Z,27.83
2018-01-08T10:44:50.685Z,28.67
2018-01-08T10:47:23.775Z,36.23
2018-01-08T10:49:56.957Z,34.17
2018-01-08T10:52:24.033Z,31.20
2018-01-08T10:54:51.660Z,32.53
2018-01-08T10:57:19.290Z,27.10
2018-01-08T10:59:46.880Z,27.83
2018-01-08T11:02:19.965Z,30.00
2018-01-08T11:04:47.549Z,19.60
2018-01-08T11:07:15.222Z,19.80
2018-01-08T11:09:42.841Z,23.27
2018-01-08T11:12:10.423Z,21.53
2018-01-08T11:14:38.002Z,19.03
2018-01-08T11:17:05.578Z,19.30
2018-01-08T11:19:33.151Z,19.83
2018-01-08T11:22:00.835Z,18.53
2018-01-08T11:24:28.482Z,19.90
2018-01-08T11:26:56.055Z,21.77
2018-01-08T11:29:23.647Z,21.50
2018-01-08T11:31:51.256Z,20.27
2018-01-08T11:34:18.902Z,28.10
2018-01-08T11:36:46.571Z,16.40
2018-01-08T11:39:14.154Z,25.30
2018-01-08T11:41:41.795Z,27.47
2018-01-08T11:44:09.504Z,37.17
2018-01-08T11:46:37.127Z,28.17
2018-01-08T11:49:04.758Z,27.87
2018-01-08T11:51:32.381Z,21.50
2018-01-08T11:53:59.950Z,17.60
2018-01-08T11:56:27.627Z,21.00
2018-01-08T11:58:55.231Z,18.90
2018-01-08T12:01:22.814Z,21.80
2018-01-08T12:03:50.446Z,23.40
2018-01-08T12:06:18.023Z,22.10
2018-01-08T12:08:45.582Z,19.27
2018-01-08T12:11:13.293Z,16.10
2018-01-08T12:13:40.879Z,17.60
2018-01-08T12:16:08.508Z,19.47
2018-01-08T12:18:36.179Z,15.70
2018-01-08T12:21:03.745Z,17.50
2018-01-08T12:23:31.370Z,17.10
2018-01-08T12:25:58.997Z,17.30
2018-01-08T12:28:26.583Z,18.07
2018-01-08T12:30:54.252Z,15.73
2018-01-08T12:33:21.823Z,15.30
2018-01-08T12:35:49.446Z,12.80
2018-01-08T12:38:17.074Z,11.33
2018-01-08T12:40:44.678Z,14.27
2018-01-08T12:43:12.318Z,11.50
2018-01-08T12:45:39.895Z,11.17
2018-01-08T12:48:07.519Z,15.83
2018-01-08T12:50:35.156Z,14.10
2018-01-08T12:53:02.727Z,18.80
2018-01-08T12:55:30.380Z,13.47
2018-01-08T12:57:57.951Z,12.60
2018-01-08T13:00:25.654Z,12.73
2018-01-08T13:02:53.291Z,13.37
2018-01-08T13:05:20.875Z,17.53
2018-01-08T13:07:48.459Z,22.20
2018-01-08T13:10:16.090Z,20.80
2018-01-08T13:12:43.780Z,17.20
2018-01-08T13:15:11.351Z,15.03
2018-01-08T13:17:38.984Z,17.60
2018-01-08T13:20:06.620Z,17.30
2018-01-08T13:22:34.216Z,14.23
2018-01-08T13:25:01.860Z,15.30
2018-01-08T13:27:29.487Z,15.40
2018-01-08T13:29:57.117Z,13.90
2018-01-08T13:32:24.765Z,13.10
2018-01-08T13:34:52.345Z,13.30
2018-01-08T13:37:19.974Z,11.53
2018-01-08T13:39:47.608Z,14.40
2018-01-08T13:42:15.202Z,13.30
2018-01-08T13:44:42.847Z,12.70
2018-01-08T13:47:10.483Z,14.17
2018-01-08T13:49:38.183Z,12.63
2018-01-08T13:52:05.782Z,17.27
2018-01-08T13:54:33.351Z,16.83
2018-01-08T13:57:01.017Z,15.13
2018-01-08T13:59:28.651Z,15.87
2018-01-08T14:01:56.351Z,15.13
2018-01-08T14:04:23.938Z,16.57
2018-01-08T14:06:51.603Z,15.40
2018-01-08T14:09:19.211Z,15.03
2018-01-08T14:11:46.885Z,17.53
2018-01-08T14:14:14.575Z,16.57
2018-01-08T14:16:42.148Z,13.80
2018-01-08T14:19:09.723Z,19.63
2018-01-08T14:21:37.310Z,20.33
2018-01-08T14:24:04.939Z,22.57
2018-01-08T14:26:32.569Z,19.40
2018-01-08T14:29:00.779Z,20.50
2018-01-08T14:31:28.350Z,22.10
2018-01-08T14:33:55.954Z,20.77
2018-01-08T14:36:23.523Z,20.80
2018-01-08T14:38:51.202Z,23.60
2018-01-08T14:41:18.778Z,19.10
2018-01-08T14:43:46.348Z,22.30
2018-01-08T14:46:13.930Z,20.70
2018-01-08T14:48:41.560Z,25.97
2018-01-08T14:51:09.243Z,21.63
2018-01-08T14:53:36.810Z,24.97
2018-01-08T14:56:04.415Z,25.37
2018-01-08T14:58:31.998Z,27.77
2018-01-08T15:00:59.629Z,26.80
2018-01-08T15:03:27.256Z,28.10
2018-01-08T15:05:54.843Z,26.67
2018-01-08T15:08:22.412Z,30.27
2018-01-08T15:10:49.998Z,32.13
2018-01-08T15:13:17.627Z,30.90
2018-01-08T15:15:45.259Z,33.23
2018-01-08T15:18:12.857Z,30.60
2018-01-08T15:20:40.502Z,37.47
2018-01-08T15:23:08.088Z,35.33
2018-01-08T15:25:35.719Z,35.20
2018-01-08T15:28:03.371Z,39.07
2018-01-08T15:30:31.010Z,38.80
2018-01-08T15:32:58.653Z,36.00
2018-01-08T15:35:26.230Z,34.90
2018-01-08T15:37:53.804Z,35.60
2018-01-08T15:40:21.428Z,41.13
2018-01-08T15:42:49.055Z,43.00
2018-01-08T15:45:16.687Z,48.97
2018-01-08T15:47:44.330Z,51.37
2018-01-08T15:50:11.912Z,62.17
2018-01-08T15:52:39.557Z,54.17
2018-01-08T15:55:07.128Z,42.60
2018-01-08T15:57:34.755Z,38.70
2018-01-08T16:00:02.353Z,39.33
2018-01-08T16:02:29.983Z,36.40
2018-01-08T16:04:57.606Z,33.03
2018-01-08T16:07:25.181Z,36.00
2018-01-08T16:09:52.762Z,33.07
2018-01-08T16:12:20.360Z,36.13
2018-01-08T16:14:48.012Z,41.90
2018-01-08T16:17:15.694Z,37.40
2018-01-08T16:19:43.275Z,34.40
2018-01-08T16:22:10.916Z,29.10
2018-01-08T16:24:38.495Z,30.60
2018-01-08T16:27:06.114Z,31.40
2018-01-08T16:29:33.803Z,30.67
2018-01-08T16:32:01.377Z,37.60
2018-01-08T16:34:29.129Z,34.43
2018-01-08T16:36:56.698Z,35.57
2018-01-08T16:39:24.313Z,42.37
2018-01-08T16:41:52.004Z,40.60
2018-01-08T16:44:19.631Z,60.23
2018-01-08T16:46:47.201Z,72.17
2018-01-08T16:49:14.800Z,69.67
2018-01-08T16:51:42.377Z,82.03
2018-01-08T16:54:10.035Z,89.70
2018-01-08T16:56:37.671Z,98.93
2018-01-08T16:59:05.229Z,106.17
2018-01-08T17:01:32.809Z,120.67
2018-01-08T17:04:00.382Z,123.20
2018-01-08T17:06:28.081Z,152.07
2018-01-08T17:08:55.780Z,154.47
2018-01-08T17:11:23.324Z,149.57
2018-01-08T17:13:50.887Z,121.57
2018-01-08T17:16:18.520Z,107.80
2018-01-08T17:18:46.157Z,91.77
2018-01-08T17:21:13.798Z,102.07
2018-01-08T17:23:41.382Z,103.53
2018-01-08T17:26:08.964Z,81.73
2018-01-08T17:28:36.535Z,82.93
2018-01-08T17:31:04.175Z,79.90
2018-01-08T17:33:31.750Z,74.63
2018-01-08T17:35:59.322Z,80.60
2018-01-08T17:38:26.909Z,67.00
2018-01-08T17:40:54.493Z,64.70
2018-01-08T17:43:22.146Z,61.73
2018-01-08T17:45:49.718Z,62.30
2018-01-08T17:48:17.347Z,60.97
2018-01-08T17:50:44.923Z,66.37
2018-01-08T17:53:12.484Z,86.97
2018-01-08T17:55:40.207Z,79.07
2018-01-08T17:58:07.775Z,68.93
2018-01-08T18:00:35.346Z,81.57
2018-01-08T18:03:02.926Z,99.43
2018-01-08T18:05:30.505Z,119.17
2018-01-08T18:07:58.144Z,112.27
2018-01-08T18:10:25.722Z,114.87
2018-01-08T18:12:53.359Z,107.67
2018-01-08T18:15:20.962Z,66.30
2018-01-08T18:17:48.591Z,64.83
2018-01-08T18:20:16.274Z,60.77
2018-01-08T18:22:43.905Z,65.20
2018-01-08T18:25:11.535Z,61.87
2018-01-08T18:27:39.206Z,67.30
2018-01-08T18:30:06.838Z,78.93
2018-01-08T18:32:34.470Z,85.60
2018-01-08T18:35:02.060Z,99.90
2018-01-08T18:37:29.648Z,117.73
2018-01-08T18:39:57.235Z,104.50
2018-01-08T18:42:24.821Z,122.73
2018-01-08T18:44:52.538Z,129.13
2018-01-08T18:47:20.181Z,113.97
2018-01-08T18:49:47.821Z,116.50
2018-01-08T18:52:15.378Z,92.37
2018-01-08T18:54:43.003Z,92.13
2018-01-08T18:57:10.622Z,86.07
2018-01-08T18:59:38.191Z,91.17
2018-01-08T19:02:05.837Z,105.40
2018-01-08T19:04:33.475Z,94.53
2018-01-08T19:07:01.115Z,89.90
2018-01-08T19:09:28.748Z,70.73
2018-01-08T19:11:56.375Z,72.00
2018-01-08T19:14:23.964Z,72.13
2018-01-08T19:16:51.551Z,63.87
2018-01-08T19:19:19.127Z,66.00
2018-01-08T19:21:46.829Z,61.47
2018-01-08T19:24:14.418Z,57.03
2018-01-08T19:26:41.992Z,60.40
2018-01-08T19:29:09.571Z,58.83
2018-01-08T19:31:37.151Z,194.80
2018-01-08T19:34:04.820Z,80.50
2018-01-08T19:36:32.394Z,62.57
2018-01-08T19:39:00.017Z,64.27
2018-01-08T19:41:27.681Z,66.20
2018-01-08T19:43:55.334Z,69.43
2018-01-08T19:46:22.962Z,87.10
2018-01-08T19:48:50.534Z,150.70
2018-01-08T19:51:18.116Z,184.80
2018-01-08T19:53:45.715Z,130.53
2018-01-08T19:56:13.350Z,92.87
2018-01-08T19:58:41.044Z,85.40
2018-01-08T20:01:08.671Z,81.10
2018-01-08T20:03:36.242Z,82.37
2018-01-08T20:06:03.892Z,78.27
2018-01-08T20:08:31.476Z,71.57
2018-01-08T20:10:59.158Z,64.57
2018-01-08T20:13:26.735Z,54.13
2018-01-08T20:15:54.288Z,68.57
2018-01-08T20:18:21.868Z,94.13
2018-01-08T20:20:49.534Z,111.20
2018-01-08T20:23:17.169Z,91.67
2018-01-08T20:25:44.750Z,88.97
2018-01-08T20:28:12.381Z,82.43
2018-01-08T20:30:39.965Z,80.90
2018-01-08T20:33:07.543Z,81.83
2018-01-08T20:35:35.165Z,83.47
2018-01-08T20:38:02.735Z,89.67
2018-01-08T20:40:30.298Z,82.10
2018-01-08T20:42:57.935Z,100.93
2018-01-08T20:45:25.562Z,71.83
2018-01-08T20:47:53.214Z,68.07
2018-01-08T20:50:20.841Z,63.77
2018-01-08T20:52:48.470Z,56.47
2018-01-08T20:55:16.110Z,63.87
2018-01-08T20:57:43.743Z,74.27
2018-01-08T21:00:11.394Z,105.33
2018-01-08T21:02:38.967Z,87.27
2018-01-08T21:05:06.543Z,80.00
2018-01-08T21:07:34.122Z,74.47
2018-01-08T21:10:01.692Z,59.47
2018-01-08T21:12:29.332Z,55.00
2018-01-08T21:14:56.905Z,54.90
2018-01-08T21:17:24.471Z,48.80
2018-01-08T21:19:52.051Z,50.93
2018-01-08T21:22:19.617Z,41.90
2018-01-08T21:24:47.222Z,42.90
2018-01-08T21:27:14.790Z,43.23
2018-01-08T21:29:42.415Z,43.07
2018-01-08T21:32:09.982Z,42.03
2018-01-08T21:34:37.606Z,41.27
2018-01-08T21:37:05.283Z,45.30
2018-01-08T21:39:33.668Z,44.80
2018-01-08T21:42:01.294Z,43.40
2018-01-08T21:44:28.874Z,40.23
2018-01-08T21:46:56.498Z,41.97
2018-01-08T21:49:24.192Z,43.60
2018-01-08T21:51:51.768Z,49.90
2018-01-08T21:54:19.344Z,45.60
2018-01-08T21:56:46.930Z,53.60
2018-01-08T21:59:14.567Z,55.60
2018-01-08T22:01:42.195Z,58.77
2018-01-08T22:04:09.802Z,63.07
2018-01-08T22:06:37.379Z,55.23
2018-01-08T22:09:05.008Z,49.90
2018-01-08T22:11:32.588Z,52.90
2018-01-08T22:14:00.211Z,52.70
2018-01-08T22:16:27.782Z,54.97
2018-01-08T22:18:55.351Z,53.60
2018-01-08T22:21:22.930Z,54.70
2018-01-08T22:23:50.503Z,54.97
2018-01-08T22:26:18.130Z,55.07
2018-01-08T22:28:45.756Z,58.20
2018-01-08T22:31:13.338Z,59.93
2018-01-08T22:33:40.914Z,59.00
2018-01-08T22:36:08.483Z,53.27
2018-01-08T22:38:36.122Z,53.77
2018-01-08T22:41:03.766Z,49.00
2018-01-08T22:43:31.340Z,50.50
2018-01-08T22:45:58.936Z,52.17
2018-01-08T22:48:26.507Z,59.30
2018-01-08T22:50:54.188Z,63.30
2018-01-08T22:53:21.814Z,66.67
2018-01-08T22:55:49.443Z,63.47
2018-01-08T22:58:17.037Z,63.60
2018-01-08T23:00:44.610Z,67.13
2018-01-08T23:03:12.305Z,65.73
2018-01-08T23:05:39.870Z,66.93
2018-01-08T23:08:07.438Z,70.67
2018-01-08T23:10:35.018Z,68.70
2018-01-08T23:13:02.588Z,77.70
2018-01-08T23:15:30.230Z,72.73
2018-01-08T23:17:57.801Z,71.40
2018-01-08T23:20:25.435Z,70.53
2018-01-08T23:22:53.079Z,72.43
2018-01-08T23:25:20.657Z,74.33
2018-01-08T23:27:48.295Z,72.77
2018-01-08T23:30:15.858Z,73.03
2018-01-08T23:32:43.482Z,68.27
2018-01-08T23:35:11.066Z,76.30
2018-01-08T23:37:38.638Z,70.33
2018-01-08T23:40:06.272Z,68.97
2018-01-08T23:42:33.848Z,69.07
2018-01-08T23:45:01.423Z,65.73
2018-01-08T23:47:28.998Z,64.00
2018-01-08T23:49:56.652Z,63.43
2018-01-08T23:52:24.386Z,61.57
2018-01-08T23:54:51.966Z,62.87
2018-01-08T23:57:19.546Z,63.97
2018-01-08T23:59:47.130Z,62.60
